createdAt,value
2018-11-29T00:03:31.941Z,4.00
2018-11-29T00:08:35.684Z,6.50
2018-11-29T00:13:39.111Z,7.25
2018-11-29T00:18:42.642Z,6.25
2018-11-29T00:23:46.205Z,5.00
2018-11-29T00:28:49.701Z,9.00
2018-11-29T00:33:55.605Z,6.20
2018-11-29T00:38:59.023Z,4.50
2018-11-29T00:44:02.453Z,6.25
2018-11-29T00:49:05.867Z,5.20
2018-11-29T00:54:09.335Z,6.60
2018-11-29T00:59:12.803Z,6.40
2018-11-29T01:04:16.288Z,4.80
2018-11-29T01:09:19.671Z,8.20
2018-11-29T01:14:23.066Z,4.40
2018-11-29T01:19:26.515Z,5.00
2018-11-29T01:24:29.939Z,5.20
2018-11-29T01:29:33.310Z,5.00
2018-11-29T01:34:36.828Z,5.00
2018-11-29T01:39:40.271Z,5.60
2018-11-29T01:44:43.640Z,6.20
2018-11-29T01:49:47.037Z,5.60
2018-11-29T01:54:50.563Z,4.00
2018-11-29T01:59:54.028Z,6.80
2018-11-29T02:04:57.543Z,6.25
2018-11-29T02:10:06.231Z,5.00
2018-11-29T02:15:09.586Z,7.80
2018-11-29T02:20:17.816Z,4.00
2018-11-29T02:25:21.216Z,4.80
2018-11-29T02:30:24.657Z,5.75
2018-11-29T02:35:28.026Z,4.00
2018-11-29T02:40:31.476Z,4.60
2018-11-29T02:45:35.020Z,5.80
2018-11-29T02:50:38.451Z,4.50
2018-11-29T02:55:41.885Z,5.00
2018-11-29T03:00:45.275Z,6.25
2018-11-29T03:05:48.731Z,4.00
2018-11-29T03:10:52.087Z,4.00
2018-11-29T03:15:55.596Z,4.40
2018-11-29T03:20:59.101Z,3.20
2018-11-29T03:26:02.549Z,4.60
2018-11-29T03:31:06.028Z,3.60
2018-11-29T03:36:09.462Z,6.25
2018-11-29T03:41:12.869Z,4.40
2018-11-29T03:46:16.263Z,4.50
2018-11-29T03:51:19.708Z,5.00
2018-11-29T03:56:23.101Z,5.00
2018-11-29T04:01:26.525Z,4.00
2018-11-29T04:06:30.018Z,3.40
2018-11-29T04:11:33.424Z,7.00
2018-11-29T04:16:36.835Z,5.60
2018-11-29T04:21:40.183Z,7.25
2018-11-29T04:26:43.546Z,7.00
2018-11-29T04:31:46.959Z,5.50
2018-11-29T04:36:50.350Z,3.75
2018-11-29T04:41:53.844Z,5.00
2018-11-29T04:46:57.345Z,5.50
2018-11-29T04:52:00.963Z,4.40
2018-11-29T04:57:04.704Z,9.00
2018-11-29T05:02:08.311Z,7.00
2018-11-29T05:07:11.852Z,6.25
2018-11-29T05:12:15.497Z,6.50
2018-11-29T05:17:19.032Z,5.60
2018-11-29T05:22:22.643Z,7.25
2018-11-29T05:27:26.252Z,6.25
2018-11-29T05:32:29.780Z,7.00
2018-11-29T05:37:33.420Z,7.00
2018-11-29T05:42:37.034Z,6.80
2018-11-29T05:47:40.743Z,6.75
2018-11-29T05:52:44.099Z,4.75
2018-11-29T05:57:47.785Z,5.50
2018-11-29T06:02:54.155Z,7.00
2018-11-29T06:08:04.401Z,11.50
2018-11-29T06:13:07.953Z,7.80
2018-11-29T06:18:11.563Z,5.80
2018-11-29T06:23:15.150Z,7.80
2018-11-29T06:28:18.829Z,6.75
2018-11-29T06:33:22.480Z,6.75
2018-11-29T06:38:26.209Z,11.00
2018-11-29T06:43:29.982Z,6.50
2018-11-29T06:48:33.694Z,8.25
2018-11-29T06:53:42.690Z,6.60
2018-11-29T06:58:46.592Z,7.80
2018-11-29T07:03:50.390Z,5.40
2018-11-29T07:08:57.072Z,6.00
2018-11-29T07:14:01.002Z,6.00
2018-11-29T07:19:04.854Z,7.00
2018-11-29T07:24:08.286Z,8.75
2018-11-29T07:29:16.734Z,5.00
2018-11-29T07:34:15.145Z,6.00
2018-11-29T07:39:18.596Z,5.75
2018-11-29T07:44:21.947Z,5.25
2018-11-29T07:49:25.319Z,4.00
2018-11-29T07:54:28.667Z,39.00
2018-11-29T07:59:32.028Z,29.40
2018-11-29T08:04:35.394Z,30.50
2018-11-29T08:09:38.752Z,26.00
2018-11-29T08:14:42.126Z,22.00
2018-11-29T08:19:45.510Z,16.25
2018-11-29T08:24:48.863Z,19.20
2018-11-29T08:29:52.223Z,18.00
2018-11-29T08:34:55.596Z,17.75
2018-11-29T08:39:58.959Z,17.60
2018-11-29T08:45:02.338Z,20.50
2018-11-29T08:50:09.677Z,17.00
2018-11-29T08:55:16.396Z,18.00
2018-11-29T09:00:20.767Z,16.00
2018-11-29T09:05:24.212Z,14.60
2018-11-29T09:10:31.514Z,14.60
2018-11-29T09:15:32.099Z,16.00
2018-11-29T09:20:35.584Z,16.50
2018-11-29T09:25:38.898Z,14.60
2018-11-29T09:30:42.274Z,15.80
2018-11-29T09:35:45.719Z,15.50
2018-11-29T09:40:49.078Z,17.00
2018-11-29T09:45:52.501Z,15.60
2018-11-29T09:50:55.865Z,15.75
2018-11-29T09:55:59.326Z,16.75
2018-11-29T10:01:02.774Z,10.60
2018-11-29T10:06:06.533Z,11.00
2018-11-29T10:11:10.044Z,11.75
2018-11-29T10:16:13.423Z,14.60
2018-11-29T10:21:16.762Z,16.20
2018-11-29T10:26:20.138Z,11.50
2018-11-29T10:31:23.459Z,13.80
2018-11-29T10:36:26.795Z,13.50
2018-11-29T10:41:30.344Z,11.75
2018-11-29T10:46:40.246Z,12.60
2018-11-29T10:51:43.574Z,10.80
2018-11-29T10:56:46.921Z,10.25
2018-11-29T11:01:55.709Z,10.25
2018-11-29T11:06:59.099Z,12.00
2018-11-29T11:12:04.001Z,9.00
2018-11-29T11:17:07.797Z,13.25
2018-11-29T11:22:14.385Z,10.50
2018-11-29T11:27:19.675Z,8.25
2018-11-29T11:32:23.424Z,12.25
2018-11-29T11:37:27.233Z,11.80
2018-11-29T11:42:31.542Z,9.80
2018-11-29T11:47:35.248Z,10.25
2018-11-29T11:52:38.884Z,9.40
2018-11-29T11:57:43.766Z,10.25
2018-11-29T12:02:48.353Z,10.00
2018-11-29T12:07:52.119Z,10.50
2018-11-29T12:12:56.251Z,9.20
2018-11-29T12:17:59.704Z,10.00
2018-11-29T12:23:03.236Z,9.00
2018-11-29T12:28:06.873Z,9.40
2018-11-29T12:33:10.429Z,9.25
2018-11-29T12:38:13.825Z,10.40
2018-11-29T12:43:17.334Z,10.25
2018-11-29T12:48:20.780Z,8.00
2018-11-29T12:53:24.255Z,9.00
2018-11-29T12:58:27.706Z,10.75
2018-11-29T13:03:31.327Z,9.40
2018-11-29T13:08:34.740Z,9.00
2018-11-29T13:13:38.153Z,7.00
2018-11-29T13:18:41.578Z,8.25
2018-11-29T13:23:45.099Z,10.20
2018-11-29T13:28:48.612Z,10.50
2018-11-29T13:33:52.012Z,10.60
2018-11-29T13:38:55.669Z,7.00
2018-11-29T13:43:59.150Z,11.25
2018-11-29T13:49:02.675Z,7.25
2018-11-29T13:54:06.580Z,8.00
2018-11-29T13:59:10.157Z,10.00
2018-11-29T14:04:13.563Z,9.25
2018-11-29T14:09:17.020Z,12.60
2018-11-29T14:14:20.408Z,10.00
2018-11-29T14:19:23.887Z,8.25
2018-11-29T14:24:27.402Z,9.25
2018-11-29T14:29:30.784Z,9.20
2018-11-29T14:34:34.234Z,8.60
2018-11-29T14:39:37.685Z,7.25
2018-11-29T14:44:41.063Z,11.25
2018-11-29T14:49:44.408Z,10.00
2018-11-29T14:54:47.976Z,8.20
2018-11-29T14:59:51.557Z,9.75
2018-11-29T15:04:56.480Z,10.60
2018-11-29T15:10:06.361Z,10.00
2018-11-29T15:15:10.923Z,9.60
2018-11-29T15:20:31.480Z,8.00
2018-11-29T15:25:34.870Z,10.50
2018-11-29T15:30:38.332Z,8.50
2018-11-29T15:35:41.896Z,7.50
2018-11-29T15:40:45.263Z,9.25
2018-11-29T15:45:48.731Z,6.80
2018-11-29T15:50:52.210Z,9.00
2018-11-29T15:55:55.583Z,10.00
2018-11-29T16:00:58.899Z,7.60
2018-11-29T16:06:02.232Z,8.80
2018-11-29T16:11:06.084Z,10.40
2018-11-29T16:16:09.461Z,10.40
2018-11-29T16:21:12.856Z,9.60
2018-11-29T16:26:16.215Z,7.75
2018-11-29T16:31:19.538Z,7.00
2018-11-29T16:36:26.723Z,8.00
2018-11-29T16:41:30.518Z,7.25
2018-11-29T16:46:34.211Z,8.40
2018-11-29T16:51:37.819Z,8.60
2018-11-29T16:56:41.155Z,10.00
2018-11-29T17:01:44.468Z,10.00
2018-11-29T17:06:47.883Z,9.40
2018-11-29T17:11:51.448Z,11.25
2018-11-29T17:16:54.799Z,10.25
2018-11-29T17:21:58.224Z,11.50
2018-11-29T17:27:01.802Z,13.75
2018-11-29T17:32:05.720Z,12.00
2018-11-29T17:37:14.028Z,10.25
2018-11-29T17:47:27.589Z,11.25
2018-11-29T17:52:32.362Z,15.50
2018-11-29T17:57:38.215Z,9.80
2018-11-29T18:02:47.370Z,10.25
2018-11-29T18:07:54.068Z,15.00
2018-11-29T18:13:01.258Z,12.40
2018-11-29T18:18:04.635Z,12.00
2018-11-29T18:23:08.924Z,12.75
2018-11-29T18:28:12.934Z,11.00
2018-11-29T18:33:16.280Z,12.50
2018-11-29T18:38:19.678Z,9.25
2018-11-29T18:43:23.877Z,14.00
2018-11-29T18:48:27.210Z,11.25
2018-11-29T18:53:30.910Z,11.20
2018-11-29T18:58:34.326Z,15.00
2018-11-29T19:03:37.850Z,13.50
2018-11-29T19:08:41.219Z,10.50
2018-11-29T19:13:44.564Z,11.25
2018-11-29T19:18:47.990Z,10.80
2018-11-29T19:23:51.353Z,11.50
2018-11-29T19:28:54.695Z,9.00
2018-11-29T19:33:58.121Z,11.40
2018-11-29T19:39:01.515Z,10.25
2018-11-29T19:44:04.929Z,12.00
2018-11-29T19:49:08.383Z,12.50
2018-11-29T19:54:11.836Z,12.00
2018-11-29T19:59:15.127Z,13.00
2018-11-29T20:04:18.470Z,7.50
2018-11-29T20:09:21.786Z,8.40
2018-11-29T20:14:26.054Z,10.00
2018-11-29T20:25:16.178Z,13.00
2018-11-29T20:30:20.419Z,12.00
2018-11-29T20:35:23.810Z,12.00
2018-11-29T20:40:28.503Z,10.75
2018-11-29T20:45:45.931Z,13.75
2018-11-29T20:50:50.399Z,11.50
2018-11-29T20:55:54.021Z,14.40
2018-11-29T21:00:57.782Z,15.50
2018-11-29T21:06:01.402Z,10.25
2018-11-29T21:11:05.050Z,9.20
2018-11-29T21:16:08.713Z,9.80
2018-11-29T21:21:12.299Z,11.00
2018-11-29T21:26:15.916Z,10.00
2018-11-29T21:31:21.277Z,12.00
2018-11-29T21:36:25.195Z,11.00
2018-11-29T21:41:28.754Z,11.60
2018-11-29T21:46:32.269Z,11.00
2018-11-29T21:51:35.910Z,13.60
2018-11-29T21:56:40.765Z,10.00
2018-11-29T22:01:44.721Z,9.75
2018-11-29T22:06:48.319Z,12.25
2018-11-29T22:11:51.979Z,9.80
2018-11-29T22:16:55.625Z,9.75
2018-11-29T22:21:59.302Z,8.75
2018-11-29T22:27:02.899Z,11.80
2018-11-29T22:32:07.024Z,11.50
2018-11-29T22:37:10.587Z,10.00
2018-11-29T22:42:14.312Z,10.60
2018-11-29T22:47:17.807Z,10.00
2018-11-29T22:52:21.291Z,9.00
2018-11-29T22:57:27.639Z,10.00
2018-11-29T23:02:31.224Z,9.75
2018-11-29T23:07:34.609Z,11.00
2018-11-29T23:12:38.142Z,10.20
2018-11-29T23:17:41.657Z,9.00
2018-11-29T23:22:45.154Z,6.50
2018-11-29T23:27:48.713Z,8.25
2018-11-29T23:32:52.315Z,12.80
2018-11-29T23:37:55.935Z,8.60
2018-11-29T23:42:59.543Z,10.20
2018-11-29T23:48:03.127Z,8.20
2018-11-29T23:53:06.747Z,11.00
2018-11-29T23:58:16.572Z,7.25
